Latest Weather Observations for Halls Creek

IDW60801

Issued at 8:13 pm WST Monday 27 January 2020 (issued every 10 minutes, with the page automatically refreshed every 10 minutes)

About weather observations | Map of weather stations | Latest weather observations for WA | Other Formats
Station Details ID: 002079 Name: HALLS CREEK AIRPORT Lat: -18.23 Lon: 127.67 Height: 409.4 m
Data from the previous 72 hours. | See also: Recent months at Halls Creek
Date/Time
WST
Temp
°C
App
Temp
°C
Dew
Point
°C
Rel
Hum
%
Delta-T
°C
Wind Press
QNH
hPa
Press
MSL
hPa
Rain since
9am
mm
Dir  Spd
km/h
Gust
km/h
Spd
kts
Gust
kts
27/08:00pm 31.0 31.6 11.9 31 11.4 CALM 0 0 0 0 1008.9 1005.6 0.0
27/07:30pm 31.3 31.7 11.1 29 11.9 CALM 0 0 0 0 1008.6 1005.2 0.0
27/07:00pm 33.5 31.9 8.9 22 14.2 S 7 9 4 5 1008.3 1004.9 0.0
27/06:30pm 35.7 33.5 7.7 18 16.0 SSE 9 13 5 7 1007.8 1004.4 0.0
27/06:00pm 37.1 33.5 5.2 14 17.7 SE 13 19 7 10 1007.4 1004.0 0.0
27/05:30pm 38.3 33.9 5.0 13 18.4 SE 17 24 9 13 1007.2 1003.9 0.0
27/05:00pm 39.0 35.4 6.7 14 18.4 SE 15 19 8 10 1007.0 1003.7 0.0
27/04:30pm 39.3 35.6 4.7 12 19.2 SSE 13 20 7 11 1006.9 1003.6 0.0
27/04:00pm 39.5 35.5 4.8 12 19.3 ESE 15 24 8 13 1006.9 1003.6 0.0
27/03:30pm 39.6 35.2 4.9 12 19.3 SE 17 28 9 15 1007.1 1003.8 0.0
27/03:00pm 39.7 36.3 6.1 13 19.1 SW 13 19 7 10 1007.4 1004.0 0.0
27/02:30pm 39.1 37.0 9.6 17 17.5 E 11 20 6 11 1007.8 1004.4 0.0
27/02:00pm 39.1 36.1 7.7 15 18.2 SE 13 28 7 15 1008.0 1004.6 0.0
27/01:30pm 39.1 35.3 7.7 15 18.2 S 17 22 9 12 1008.3 1004.9 0.0
27/01:00pm 38.8 36.4 8.5 16 17.7 SSE 11 20 6 11 1008.7 1005.3 0.0
27/12:30pm 38.8 36.1 7.5 15 18.0 SE 11 20 6 11 1009.0 1005.7 0.0
27/12:00pm 38.2 33.6 3.8 12 18.7 S 17 24 9 13 1009.5 1006.2 0.0
27/11:30am 38.0 35.2 8.7 17 17.1 S 13 22 7 12 1010.0 1006.6 0.0
27/11:00am 36.7 35.2 15.2 27 13.7 S 17 24 9 13 1010.4 1007.0 0.0
27/10:30am 35.7 35.4 17.4 33 12.0 SSW 15 20 8 11 1010.8 1007.4 0.0
27/10:00am 35.0 35.4 19.0 39 10.7 SSW 15 24 8 13 1011.2 1007.9 0.0
27/09:30am 34.1 34.6 20.1 43 9.5 SSW 17 24 9 13 1011.4 1008.1 0.0
27/09:00am 32.8 33.3 20.0 47 8.6 SSW 17 24 9 13 1011.6 1008.3 0.0
27/08:30am 31.8 33.1 21.6 54 7.0 SW 17 22 9 12 1011.6 1008.3 0.0
27/08:00am 31.0 32.8 21.8 58 6.3 SW 15 20 8 11 1011.5 1008.2 0.0
27/07:30am 30.1 32.2 21.7 60 5.7 WSW 13 20 7 11 1011.2 1007.9 0.0
27/07:00am 28.9 31.6 22.2 67 4.6 WSW 11 17 6 9 1010.8 1007.4 0.0
27/06:30am 27.7 29.8 21.0 67 4.5 WSW 11 17 6 9 1010.6 1007.2 0.0
27/06:00am 26.1 29.6 22.2 79 2.7 WSW 7 9 4 5 1010.2 1006.8 0.0
27/05:30am 25.0 28.9 21.9 83 2.1 WSW 4 6 2 3 1009.7 1006.4 0.0
27/05:00am 25.0 28.6 22.3 85 1.8 SW 7 9 4 5 1009.4 1006.1 0.0
27/04:30am 25.2 28.5 21.9 82 2.2 WSW 7 9 4 5 1009.1 1005.8 0.0
27/04:00am 25.8 28.9 22.1 80 2.5 WSW 9 13 5 7 1008.7 1005.3 0.0
27/03:30am 25.9 29.4 22.2 80 2.5 SW 7 9 4 5 1008.5 1005.1 0.0
27/03:00am 26.3 29.6 21.9 77 3.0 WSW 7 9 4 5 1008.4 1005.0 0.0
27/02:30am 27.0 30.3 21.5 72 3.7 WNW 6 7 3 4 1008.8 1005.4 0.0
27/02:00am 27.4 30.1 21.4 70 4.1 W 9 11 5 6 1009.0 1005.7 0.0
27/01:30am 27.2 30.8 22.4 75 3.3 WSW 7 11 4 6 1009.1 1005.8 0.0
27/01:00am 27.6 31.2 23.0 76 3.2 WSW 9 11 5 6 1009.4 1006.1 0.0
27/12:30am 28.1 32.0 23.0 74 3.5 W 7 9 4 5 1009.6 1006.3 0.0
27/12:00am 28.7 32.9 23.4 73 3.7 W 7 9 4 5 1010.1 1006.7 0.0
 
Date/Time
WST
Temp
°C
App
Temp
°C
Dew
Point
°C
Rel
Hum
%
Delta-T
°C
Wind Press
QNH
hPa
Press
MSL
hPa
Rain since
9am
mm
Dir  Spd
km/h
Gust
km/h
Spd
kts
Gust
kts
26/11:30pm 29.2 32.9 23.2 70 4.2 W 9 13 5 7 1010.2 1006.8 0.0
26/11:00pm 29.5 32.9 22.7 67 4.7 W 9 11 5 6 1010.6 1007.2 0.0
26/10:30pm 29.8 33.3 22.8 66 4.8 W 9 15 5 8 1010.7 1007.3 0.0
26/10:00pm 30.1 33.3 22.3 63 5.4 WNW 9 11 5 6 1010.4 1007.0 0.0
26/09:30pm 30.4 33.0 22.0 60 5.8 W 11 15 6 8 1010.2 1006.8 0.0
26/09:00pm 29.7 34.7 23.2 68 4.5 SW 2 9 1 5 1010.1 1006.7 0.0
26/08:30pm 29.6 34.7 22.6 66 4.8 CALM 0 0 0 0 1009.7 1006.4 0.0
26/08:00pm 30.1 34.8 22.0 62 5.6 CALM 0 0 0 0 1009.5 1006.2 0.0
26/07:30pm 31.0 34.0 20.0 52 7.4 NNE 4 7 2 4 1009.3 1006.0 0.0
26/07:00pm 31.4 33.1 19.4 49 8.0 N 9 11 5 6 1009.2 1005.9 0.0
26/06:30pm 31.8 33.1 20.1 50 7.9 NNE 13 19 7 10 1009.1 1005.8 0.0
26/06:00pm 32.4 33.3 20.0 48 8.3 NE 15 22 8 12 1008.8 1005.4 0.0
26/05:30pm 35.1 38.4 19.1 39 10.7 CALM 0 0 0 0 1008.3 1004.9 0.0
26/05:00pm 35.7 38.8 18.7 36 11.3 CALM 0 2 0 1 1008.2 1004.8 0.0
26/04:30pm 35.4 36.9 18.0 35 11.5 SSE 7 11 4 6 1007.9 1004.5 0.0
26/04:00pm 35.0 37.5 18.1 36 11.2 S 2 7 1 4 1007.9 1004.5 0.0
26/03:30pm 35.0 36.0 18.6 38 10.9 SE 11 15 6 8 1007.9 1004.5 0.0
26/03:00pm 35.7 37.3 19.2 38 11.1 S 9 17 5 9 1007.8 1004.4 0.0
26/02:30pm 35.1 35.9 18.2 36 11.2 SSE 11 17 6 9 1008.1 1004.7 0.0
26/02:00pm 34.9 36.8 18.9 39 10.7 SSW 7 13 4 7 1008.6 1005.2 0.0
26/01:30pm 34.7 36.5 19.5 40 10.2 S 9 17 5 9 1009.1 1005.8 0.0
26/01:00pm 34.1 35.1 19.4 42 9.9 S 13 20 7 11 1009.5 1006.2 0.0
26/12:30pm 33.4 34.1 18.0 40 10.1 SE 11 17 6 9 1010.0 1006.6 0.0
26/12:00pm 33.8 34.8 19.5 43 9.6 SSE 13 22 7 12 1010.3 1006.9 0.0
26/11:30am 32.9 34.9 20.8 49 8.2 SE 11 17 6 9 1010.6 1007.2 0.0
26/11:00am 31.7 32.9 20.0 50 7.9 ESE 13 20 7 11 1011.0 1007.6 0.0
26/10:30am 31.4 32.5 21.3 55 6.9 SE 17 24 9 13 1011.4 1008.1 0.0
26/10:00am 31.0 32.5 22.0 58 6.2 SE 17 24 9 13 1011.5 1008.2 0.0
26/09:30am 29.9 30.7 21.8 62 5.5 SE 20 26 11 14 1011.6 1008.3 0.0
26/09:00am 29.0 30.3 21.7 64 5.0 SE 17 22 9 12 1011.7 1008.4 8.6
26/08:30am 28.2 29.5 21.7 68 4.4 SSE 17 20 9 11 1011.5 1008.2 8.4
26/08:00am 28.7 30.8 21.7 66 4.8 SE 13 20 7 11 1011.3 1008.0 8.4
26/07:30am 27.3 30.1 21.6 71 3.9 W 9 13 5 7 1010.3 1006.9 8.4
26/07:00am 26.0 28.9 21.7 77 2.9 SW 9 13 5 7 1010.2 1006.8 8.4
26/06:30am 25.1 28.9 21.6 81 2.4 WNW 4 9 2 5 1009.6 1006.3 8.4
26/06:00am 24.3 27.9 22.0 87 1.6 W 6 9 3 5 1009.4 1006.1 8.4
26/05:30am 24.0 25.9 22.1 89 1.3 NW 15 28 8 15 1009.2 1005.9 8.4
26/05:00am 24.0 25.7 22.3 90 1.2 NW 17 22 9 12 1009.0 1005.7 8.4
26/04:30am 24.0 26.6 22.6 92 1.0 NNW 13 22 7 12 1009.1 1005.8 8.4
26/04:00am 23.9 27.3 22.7 93 0.8 NNW 9 17 5 9 1009.5 1006.2 8.4
26/03:30am 23.8 27.5 22.6 93 0.8 W 7 11 4 6 1010.0 1006.6 8.4
26/03:00am 23.7 27.4 22.3 92 1.0 W 6 7 3 4 1009.7 1006.4 8.4
26/02:30am 23.9 26.9 22.7 93 0.8 SSW 11 15 6 8 1010.1 1006.7 8.2
26/02:00am 23.9 26.9 22.7 93 0.8 S 11 15 6 8 1010.3 1006.9 8.2
26/01:30am 23.9 27.5 23.0 95 0.6 ESE 9 13 5 7 1010.7 1007.3 8.0
26/01:00am 23.8 27.0 23.1 96 0.5 E 11 15 6 8 1011.3 1008.0 8.0
26/12:30am 23.4 26.7 22.6 95 0.5 ENE 9 13 5 7 1011.4 1008.1 7.2
26/12:11am 23.1 25.8 22.1 94 0.7 NNE 11 15 6 8 1011.7 1008.4 6.6
26/12:00am 23.1 25.1 22.3 95 0.5 NE 15 19 8 10 1011.9 1008.6 6.2
 
Date/Time
WST
Temp
°C
App
Temp
°C
Dew
Point
°C
Rel
Hum
%
Delta-T
°C
Wind Press
QNH
hPa
Press
MSL
hPa
Rain since
9am
mm
Dir  Spd
km/h
Gust
km/h
Spd
kts
Gust
kts
25/11:43pm 23.1 24.7 21.5 91 1.1 ESE 15 26 8 14 1012.8 1009.4 3.2
25/11:30pm 23.8 24.0 22.1 90 1.1 ESE 24 33 13 18 1012.6 1009.2 2.0
25/11:00pm 24.9 25.6 22.2 85 1.8 ESE 22 28 12 15 1012.4 1009.1 2.0
25/10:30pm 25.3 26.5 22.2 83 2.1 ESE 19 28 10 15 1012.4 1009.1 2.0
25/10:00pm 26.2 28.0 21.8 77 3.0 SE 15 19 8 10 1011.9 1008.6 2.0
25/09:30pm 26.6 29.7 21.4 73 3.5 SSE 7 11 4 6 1011.6 1008.3 2.0
25/09:00pm 27.9 27.2 20.2 63 5.1 E 24 43 13 23 1010.8 1007.4 2.0
25/08:46pm 27.8 27.9 20.4 64 4.9 ENE 20 52 11 28 1010.6 1007.2 2.0
25/08:30pm 28.6 29.2 19.5 58 6.0 NNE 15 24 8 13 1009.0 1005.7 2.0
25/08:00pm 28.7 27.9 18.5 54 6.7 NNW 20 30 11 16 1008.5 1005.1 2.0
25/07:30pm 28.6 28.8 20.1 60 5.7 NNW 19 32 10 17 1008.5 1005.1 2.0
25/07:00pm 27.5 29.3 21.1 68 4.3 NNW 13 22 7 12 1008.9 1005.6 2.0
25/06:30pm 28.0 28.6 20.3 63 5.1 NNE 17 24 9 13 1008.4 1005.0 2.0
25/06:00pm 28.0 28.9 20.8 65 4.8 NNE 17 22 9 12 1008.2 1004.8 2.0
25/05:30pm 26.7 26.5 20.5 69 4.1 NE 22 30 12 16 1007.6 1004.2 2.0
25/05:16pm 25.9 29.0 22.2 80 2.5 SSW 9 17 5 9 1008.0 1004.6 2.0
25/05:00pm 26.4 23.4 19.8 67 4.4 SSW 35 48 19 26 1007.4 1004.0 1.6
25/04:56pm 26.1 22.8 20.0 69 4.0 SSW 37 52 20 28 1007.4 1004.0 1.0
25/04:50pm 29.6 26.3 19.3 54 6.8 SW 35 52 19 28 1007.1 1003.8 0.0
25/04:34pm 32.9 30.0 17.1 39 10.2 S 28 54 15 29 1006.2 1002.8 0.0
25/04:30pm 32.5 29.1 16.8 39 10.1 S 30 43 16 23 1006.2 1002.8 0.0
25/04:17pm 34.1 34.0 17.8 38 10.7 WSW 15 41 8 22 1006.0 1002.6 0.0
25/04:00pm 37.5 38.0 17.5 30 13.2 W 11 17 6 9 1005.3 1001.9 0.0
25/03:30pm 37.1 38.4 17.6 31 12.9 NW 7 13 4 7 1005.5 1002.1 0.0
25/03:00pm 36.9 38.0 18.0 33 12.6 NNE 9 17 5 9 1005.8 1002.4 0.0
25/02:30pm 37.1 38.5 18.6 33 12.4 NNW 9 15 5 8 1006.4 1003.0 0.0
25/02:00pm 37.7 39.3 19.1 33 12.5 WNW 9 17 5 9 1007.0 1003.7 0.0
25/01:30pm 36.6 38.4 19.5 36 11.5 N 9 19 5 10 1007.6 1004.2 0.0
25/01:00pm 36.5 39.0 19.9 38 11.3 SSW 6 13 3 7 1007.9 1004.5 0.0
25/12:30pm 35.8 37.3 20.5 41 10.4 NNW 13 17 7 9 1008.4 1005.0 0.0
25/12:00pm 35.6 37.9 20.7 41 10.2 N 9 22 5 12 1009.0 1005.7 0.0
25/11:30am 34.5 36.7 21.2 46 9.1 NNW 11 20 6 11 1009.5 1006.2 0.0
25/11:00am 34.3 37.4 21.4 47 8.9 NNW 7 17 4 9 1010.0 1006.6 0.0
25/10:30am 34.1 37.4 22.5 50 8.1 NNW 9 15 5 8 1010.3 1006.9 0.0
25/10:00am 33.2 36.0 22.3 52 7.6 NE 11 17 6 9 1010.7 1007.3 0.0
25/09:30am 31.9 34.8 21.7 54 7.0 NNE 9 15 5 8 1010.8 1007.4 0.0
25/09:00am 31.3 34.9 22.0 57 6.4 N 6 13 3 7 1011.0 1007.6 0.0
25/08:30am 30.6 33.3 22.2 61 5.8 NNE 11 15 6 8 1011.2 1007.9 0.0
25/08:00am 30.1 33.3 22.3 63 5.4 NNE 9 15 5 8 1011.3 1008.0 0.0
25/07:30am 29.6 32.3 22.1 64 5.1 NNE 11 15 6 8 1011.0 1007.6 0.0
25/07:00am 28.4 31.4 21.9 68 4.4 NNE 9 13 5 7 1010.7 1007.3 0.0
25/06:30am 27.2 30.7 22.2 74 3.4 NE 7 9 4 5 1010.3 1006.9 0.0
25/06:00am 25.9 30.0 21.6 77 2.9 NNE 2 7 1 4 1010.0 1006.6 0.0
25/05:30am 24.9 28.4 21.8 83 2.1 NE 6 7 3 4 1009.5 1006.2 0.0
25/05:00am 24.8 28.3 21.9 84 2.0 NE 6 7 3 4 1009.2 1005.9 0.0
25/04:30am 25.1 28.5 22.0 83 2.1 NE 7 9 4 5 1008.8 1005.4 0.0
25/04:00am 25.5 29.0 22.2 82 2.2 NE 7 11 4 6 1008.7 1005.3 0.0
25/03:30am 25.6 29.3 22.5 83 2.1 NE 7 9 4 5 1008.7 1005.3 0.0
25/03:00am 25.5 29.2 22.6 84 2.0 NE 7 9 4 5 1008.6 1005.2 0.0
25/02:30am 25.7 29.5 22.4 82 2.3 ENE 6 9 3 5 1008.6 1005.2 0.0
25/02:00am 26.2 30.2 22.1 78 2.8 NW 4 9 2 5 1008.3 1004.9 0.0
25/01:30am 25.5 30.2 22.6 84 2.0 NNW 2 7 1 4 1008.4 1005.0 0.0
25/01:00am 25.6 30.5 22.3 82 2.3 CALM 0 0 0 0 1008.6 1005.2 0.0
25/12:30am 26.3 30.2 22.6 80 2.5 N 6 7 3 4 1008.9 1005.6 0.0
25/12:00am 26.6 30.6 22.7 79 2.7 N 6 6 3 3 1008.9 1005.6 0.0
 
Date/Time
WST
Temp
°C
App
Temp
°C
Dew
Point
°C
Rel
Hum
%
Delta-T
°C
Wind Press
QNH
hPa
Press
MSL
hPa
Rain since
9am
mm
Dir  Spd
km/h
Gust
km/h
Spd
kts
Gust
kts
24/11:30pm 27.4 31.2 22.4 74 3.4 N 6 9 3 5 1009.2 1005.9 0.0
24/11:00pm 27.9 31.8 22.6 73 3.7 N 6 7 3 4 1009.3 1006.0 0.0
24/10:30pm 28.1 31.6 22.1 70 4.1 N 7 9 4 5 1009.6 1006.3 0.0
24/10:00pm 28.6 31.9 21.9 67 4.6 N 7 9 4 5 1009.8 1006.5 0.0
24/09:30pm 28.8 32.7 21.8 66 4.8 NNE 4 7 2 4 1010.0 1006.6 0.0
24/09:00pm 29.5 33.0 22.2 65 5.0 N 7 13 4 7 1009.8 1006.5 0.0
24/08:30pm 30.0 32.9 22.4 63 5.2 NNE 11 13 6 7 1009.6 1006.3 0.0

Other formats

Comma delimited format used in spreadsheet applications
http://www.bom.gov.au/fwo/IDW60801/IDW60801.94212.axf

JavaScript Object Notation format (JSON) in row-major order
http://www.bom.gov.au/fwo/IDW60801/IDW60801.94212.json

Data quality

Most of these data are generated automatically and are frequently updated. Quality checks on data are not normally performed. It is possible for incorrect values to appear. Refer to information at About Latest Weather Observations and please check the disclaimer before using these data.